sensor_id;sensor_type;location;lat;lon;timestamp;P1;durP1;ratioP1;P2;durP2;ratioP2
62673;SDS011;62269;47.594;17.638;2023-03-11T00:00:02;3.83;;;2.65;;
62673;SDS011;62269;47.594;17.638;2023-03-11T00:01:39;2.40;;;2.20;;
62673;SDS011;62269;47.594;17.638;2023-03-11T00:02:26;2.00;;;1.90;;
62673;SDS011;62269;47.594;17.638;2023-03-11T00:03:14;5.43;;;2.53;;
62673;SDS011;62269;47.594;17.638;2023-03-11T00:04:03;3.33;;;2.30;;
62673;SDS011;62269;47.594;17.638;2023-03-11T00:04:50;7.00;;;2.65;;
62673;SDS011;62269;47.594;17.638;2023-03-11T00:05:38;5.10;;;2.37;;
62673;SDS011;62269;47.594;17.638;2023-03-11T00:06:27;4.87;;;2.25;;
62673;SDS011;62269;47.594;17.638;2023-03-11T00:07:14;3.53;;;2.25;;
62673;SDS011;62269;47.594;17.638;2023-03-11T00:08:01;3.03;;;2.10;;
62673;SDS011;62269;47.594;17.638;2023-03-11T00:08:49;2.70;;;2.03;;
62673;SDS011;62269;47.594;17.638;2023-03-11T00:09:37;2.53;;;2.22;;
62673;SDS011;62269;47.594;17.638;2023-03-11T00:10:27;5.55;;;2.83;;
62673;SDS011;62269;47.594;17.638;2023-03-11T00:11:15;2.28;;;2.08;;
62673;SDS011;62269;47.594;17.638;2023-03-11T00:12:02;4.07;;;2.35;;
62673;SDS011;62269;47.594;17.638;2023-03-11T00:12:50;3.85;;;2.58;;
62673;SDS011;62269;47.594;17.638;2023-03-11T00:13:37;4.72;;;2.58;;
62673;SDS011;62269;47.594;17.638;2023-03-11T00:14:26;3.35;;;2.22;;
62673;SDS011;62269;47.594;17.638;2023-03-11T00:15:13;3.80;;;2.30;;
62673;SDS011;62269;47.594;17.638;2023-03-11T00:16:00;2.95;;;2.40;;
62673;SDS011;62269;47.594;17.638;2023-03-11T00:16:47;4.53;;;2.53;;
62673;SDS011;62269;47.594;17.638;2023-03-11T00:17:35;4.03;;;2.50;;
62673;SDS011;62269;47.594;17.638;2023-03-11T00:18:22;4.15;;;2.70;;
62673;SDS011;62269;47.594;17.638;2023-03-11T00:19:13;3.30;;;2.40;;
62673;SDS011;62269;47.594;17.638;2023-03-11T00:20:01;3.17;;;2.12;;
62673;SDS011;62269;47.594;17.638;2023-03-11T00:20:50;2.85;;;2.05;;
62673;SDS011;62269;47.594;17.638;2023-03-11T00:21:40;4.78;;;2.67;;
62673;SDS011;62269;47.594;17.638;2023-03-11T00:22:28;4.78;;;2.67;;
62673;SDS011;62269;47.594;17.638;2023-03-11T00:23:15;4.95;;;3.50;;
62673;SDS011;62269;47.594;17.638;2023-03-11T00:24:02;2.80;;;2.20;;
62673;SDS011;62269;47.594;17.638;2023-03-11T00:24:49;3.87;;;2.30;;
62673;SDS011;62269;47.594;17.638;2023-03-11T00:25:37;3.53;;;2.22;;
62673;SDS011;62269;47.594;17.638;2023-03-11T00:26:24;3.33;;;2.53;;
62673;SDS011;62269;47.594;17.638;2023-03-11T00:27:11;3.67;;;2.55;;
62673;SDS011;62269;47.594;17.638;2023-03-11T00:27:59;3.72;;;2.25;;
62673;SDS011;62269;47.594;17.638;2023-03-11T00:28:46;4.10;;;2.10;;
62673;SDS011;62269;47.594;17.638;2023-03-11T00:29:34;4.40;;;2.42;;
62673;SDS011;62269;47.594;17.638;2023-03-11T00:30:22;6.55;;;2.83;;
62673;SDS011;62269;47.594;17.638;2023-03-11T00:31:10;3.78;;;2.47;;
62673;SDS011;62269;47.594;17.638;2023-03-11T00:31:58;4.12;;;2.47;;
62673;SDS011;62269;47.594;17.638;2023-03-11T00:32:46;3.90;;;2.97;;
62673;SDS011;62269;47.594;17.638;2023-03-11T00:33:37;4.30;;;2.47;;
62673;SDS011;62269;47.594;17.638;2023-03-11T00:35:12;6.53;;;2.85;;
62673;SDS011;62269;47.594;17.638;2023-03-11T00:35:59;4.50;;;2.40;;
62673;SDS011;62269;47.594;17.638;2023-03-11T00:36:46;5.53;;;2.70;;
62673;SDS011;62269;47.594;17.638;2023-03-11T00:37:33;2.87;;;2.22;;
62673;SDS011;62269;47.594;17.638;2023-03-11T00:38:21;3.03;;;2.37;;
62673;SDS011;62269;47.594;17.638;2023-03-11T00:39:08;4.47;;;2.47;;
62673;SDS011;62269;47.594;17.638;2023-03-11T00:39:56;2.80;;;2.20;;
62673;SDS011;62269;47.594;17.638;2023-03-11T00:40:44;2.87;;;2.22;;
62673;SDS011;62269;47.594;17.638;2023-03-11T00:41:32;4.25;;;2.28;;
62673;SDS011;62269;47.594;17.638;2023-03-11T00:42:20;3.12;;;2.47;;
62673;SDS011;62269;47.594;17.638;2023-03-11T00:43:07;3.50;;;3.20;;
62673;SDS011;62269;47.594;17.638;2023-03-11T00:43:54;4.22;;;2.55;;
62673;SDS011;62269;47.594;17.638;2023-03-11T00:44:41;3.08;;;1.85;;
62673;SDS011;62269;47.594;17.638;2023-03-11T00:45:28;2.97;;;2.47;;
62673;SDS011;62269;47.594;17.638;2023-03-11T00:46:15;3.58;;;2.67;;
62673;SDS011;62269;47.594;17.638;2023-03-11T00:47:03;3.75;;;2.50;;
62673;SDS011;62269;47.594;17.638;2023-03-11T00:47:50;2.28;;;2.08;;
62673;SDS011;62269;47.594;17.638;2023-03-11T00:48:37;2.83;;;2.30;;
62673;SDS011;62269;47.594;17.638;2023-03-11T00:49:24;3.15;;;2.53;;
62673;SDS011;62269;47.594;17.638;2023-03-11T00:50:16;3.53;;;2.62;;
62673;SDS011;62269;47.594;17.638;2023-03-11T00:51:10;4.12;;;2.47;;
62673;SDS011;62269;47.594;17.638;2023-03-11T00:52:00;2.58;;;2.35;;
62673;SDS011;62269;47.594;17.638;2023-03-11T00:52:47;6.15;;;2.55;;
62673;SDS011;62269;47.594;17.638;2023-03-11T00:53:34;2.47;;;2.28;;
62673;SDS011;62269;47.594;17.638;2023-03-11T00:54:21;3.20;;;2.22;;
62673;SDS011;62269;47.594;17.638;2023-03-11T00:55:09;3.10;;;2.45;;
62673;SDS011;62269;47.594;17.638;2023-03-11T00:55:57;7.93;;;3.20;;
62673;SDS011;62269;47.594;17.638;2023-03-11T00:56:44;4.37;;;2.58;;
62673;SDS011;62269;47.594;17.638;2023-03-11T00:57:31;3.08;;;2.58;;
62673;SDS011;62269;47.594;17.638;2023-03-11T00:58:18;4.45;;;2.45;;
62673;SDS011;62269;47.594;17.638;2023-03-11T00:59:06;3.87;;;2.47;;
62673;SDS011;62269;47.594;17.638;2023-03-11T00:59:53;3.87;;;2.85;;
62673;SDS011;62269;47.594;17.638;2023-03-11T01:00:40;5.85;;;2.90;;
62673;SDS011;62269;47.594;17.638;2023-03-11T01:01:27;4.57;;;2.70;;
62673;SDS011;62269;47.594;17.638;2023-03-11T01:02:14;5.82;;;3.20;;
62673;SDS011;62269;47.594;17.638;2023-03-11T01:03:01;8.77;;;3.17;;
62673;SDS011;62269;47.594;17.638;2023-03-11T01:03:49;4.75;;;2.92;;
62673;SDS011;62269;47.594;17.638;2023-03-11T01:04:36;3.92;;;2.70;;
62673;SDS011;62269;47.594;17.638;2023-03-11T01:05:24;5.97;;;3.50;;
62673;SDS011;62269;47.594;17.638;2023-03-11T01:06:13;3.55;;;2.53;;
62673;SDS011;62269;47.594;17.638;2023-03-11T01:07:00;7.22;;;2.60;;
62673;SDS011;62269;47.594;17.638;2023-03-11T01:07:47;6.78;;;3.37;;
62673;SDS011;62269;47.594;17.638;2023-03-11T01:08:35;4.12;;;2.67;;
62673;SDS011;62269;47.594;17.638;2023-03-11T01:09:22;3.60;;;2.85;;
62673;SDS011;62269;47.594;17.638;2023-03-11T01:10:09;5.53;;;2.90;;
62673;SDS011;62269;47.594;17.638;2023-03-11T01:10:57;5.60;;;3.25;;
62673;SDS011;62269;47.594;17.638;2023-03-11T01:11:45;2.75;;;2.25;;
62673;SDS011;62269;47.594;17.638;2023-03-11T01:12:32;5.57;;;3.20;;
62673;SDS011;62269;47.594;17.638;2023-03-11T01:13:19;6.00;;;4.30;;
62673;SDS011;62269;47.594;17.638;2023-03-11T01:14:06;4.53;;;2.70;;
62673;SDS011;62269;47.594;17.638;2023-03-11T01:14:53;4.37;;;2.65;;
62673;SDS011;62269;47.594;17.638;2023-03-11T01:15:41;5.50;;;2.92;;
62673;SDS011;62269;47.594;17.638;2023-03-11T01:16:28;4.37;;;3.08;;
62673;SDS011;62269;47.594;17.638;2023-03-11T01:17:15;6.43;;;3.25;;
62673;SDS011;62269;47.594;17.638;2023-03-11T01:18:02;5.95;;;3.20;;
62673;SDS011;62269;47.594;17.638;2023-03-11T01:18:50;3.30;;;2.80;;
62673;SDS011;62269;47.594;17.638;2023-03-11T01:19:37;4.18;;;2.85;;
62673;SDS011;62269;47.594;17.638;2023-03-11T01:20:24;5.05;;;3.12;;
62673;SDS011;62269;47.594;17.638;2023-03-11T01:21:12;4.28;;;2.83;;
62673;SDS011;62269;47.594;17.638;2023-03-11T01:21:58;6.00;;;2.80;;
62673;SDS011;62269;47.594;17.638;2023-03-11T01:22:45;6.35;;;3.28;;
62673;SDS011;62269;47.594;17.638;2023-03-11T01:23:33;4.07;;;2.75;;
62673;SDS011;62269;47.594;17.638;2023-03-11T01:24:20;4.78;;;2.60;;
62673;SDS011;62269;47.594;17.638;2023-03-11T01:25:08;5.25;;;3.25;;
62673;SDS011;62269;47.594;17.638;2023-03-11T01:25:57;4.82;;;2.70;;
62673;SDS011;62269;47.594;17.638;2023-03-11T01:26:44;3.92;;;2.65;;
62673;SDS011;62269;47.594;17.638;2023-03-11T01:27:31;3.85;;;2.45;;
62673;SDS011;62269;47.594;17.638;2023-03-11T01:28:18;3.12;;;2.58;;
62673;SDS011;62269;47.594;17.638;2023-03-11T01:29:05;3.45;;;2.28;;
62673;SDS011;62269;47.594;17.638;2023-03-11T01:29:52;6.00;;;2.72;;
62673;SDS011;62269;47.594;17.638;2023-03-11T01:30:40;8.15;;;3.17;;
62673;SDS011;62269;47.594;17.638;2023-03-11T01:31:28;6.20;;;2.65;;
62673;SDS011;62269;47.594;17.638;2023-03-11T01:32:15;3.15;;;2.37;;
62673;SDS011;62269;47.594;17.638;2023-03-11T01:33:02;4.45;;;2.33;;
62673;SDS011;62269;47.594;17.638;2023-03-11T01:33:50;2.28;;;2.08;;
62673;SDS011;62269;47.594;17.638;2023-03-11T01:34:37;2.92;;;2.28;;
62673;SDS011;62269;47.594;17.638;2023-03-11T01:35:25;3.90;;;2.90;;
62673;SDS011;62269;47.594;17.638;2023-03-11T01:36:13;5.75;;;2.65;;
62673;SDS011;62269;47.594;17.638;2023-03-11T01:37:01;4.15;;;2.62;;
62673;SDS011;62269;47.594;17.638;2023-03-11T01:37:49;4.75;;;2.40;;
62673;SDS011;62269;47.594;17.638;2023-03-11T01:38:36;3.53;;;2.42;;
62673;SDS011;62269;47.594;17.638;2023-03-11T01:39:23;3.35;;;2.05;;
62673;SDS011;62269;47.594;17.638;2023-03-11T01:40:18;3.03;;;2.72;;
62673;SDS011;62269;47.594;17.638;2023-03-11T01:41:07;4.90;;;2.90;;
62673;SDS011;62269;47.594;17.638;2023-03-11T01:41:56;5.32;;;2.87;;
62673;SDS011;62269;47.594;17.638;2023-03-11T01:42:43;4.43;;;2.67;;
62673;SDS011;62269;47.594;17.638;2023-03-11T01:43:50;3.55;;;2.45;;
62673;SDS011;62269;47.594;17.638;2023-03-11T01:44:40;4.97;;;3.03;;
62673;SDS011;62269;47.594;17.638;2023-03-11T01:45:32;6.68;;;2.87;;
62673;SDS011;62269;47.594;17.638;2023-03-11T01:47:40;4.03;;;2.03;;
62673;SDS011;62269;47.594;17.638;2023-03-11T01:48:27;4.85;;;2.25;;
62673;SDS011;62269;47.594;17.638;2023-03-11T01:49:14;4.60;;;2.55;;
62673;SDS011;62269;47.594;17.638;2023-03-11T01:50:03;2.95;;;2.53;;
62673;SDS011;62269;47.594;17.638;2023-03-11T01:50:52;3.37;;;2.47;;
62673;SDS011;62269;47.594;17.638;2023-03-11T01:51:40;3.85;;;2.53;;
62673;SDS011;62269;47.594;17.638;2023-03-11T01:52:29;4.68;;;2.72;;
62673;SDS011;62269;47.594;17.638;2023-03-11T01:53:16;2.55;;;2.28;;
62673;SDS011;62269;47.594;17.638;2023-03-11T01:54:04;2.60;;;2.33;;
62673;SDS011;62269;47.594;17.638;2023-03-11T01:54:53;4.75;;;2.58;;
62673;SDS011;62269;47.594;17.638;2023-03-11T01:55:40;5.10;;;2.58;;
62673;SDS011;62269;47.594;17.638;2023-03-11T01:56:28;4.30;;;2.75;;
62673;SDS011;62269;47.594;17.638;2023-03-11T01:57:16;3.85;;;2.62;;
62673;SDS011;62269;47.594;17.638;2023-03-11T01:58:04;4.32;;;2.53;;
62673;SDS011;62269;47.594;17.638;2023-03-11T01:58:52;3.10;;;2.33;;
62673;SDS011;62269;47.594;17.638;2023-03-11T01:59:44;4.72;;;2.53;;
62673;SDS011;62269;47.594;17.638;2023-03-11T02:00:37;1.90;;;1.80;;
62673;SDS011;62269;47.594;17.638;2023-03-11T02:01:25;5.15;;;2.75;;
62673;SDS011;62269;47.594;17.638;2023-03-11T02:02:28;3.12;;;2.50;;
62673;SDS011;62269;47.594;17.638;2023-03-11T02:03:35;3.95;;;2.37;;
62673;SDS011;62269;47.594;17.638;2023-03-11T02:04:25;2.58;;;2.30;;
62673;SDS011;62269;47.594;17.638;2023-03-11T02:05:13;2.78;;;2.42;;
62673;SDS011;62269;47.594;17.638;2023-03-11T02:06:02;2.83;;;2.28;;
62673;SDS011;62269;47.594;17.638;2023-03-11T02:06:51;3.60;;;2.40;;
62673;SDS011;62269;47.594;17.638;2023-03-11T02:07:39;4.53;;;2.60;;
62673;SDS011;62269;47.594;17.638;2023-03-11T02:08:26;4.18;;;2.60;;
62673;SDS011;62269;47.594;17.638;2023-03-11T02:09:15;3.40;;;2.12;;
62673;SDS011;62269;47.594;17.638;2023-03-11T02:10:02;4.28;;;2.47;;
62673;SDS011;62269;47.594;17.638;2023-03-11T02:10:50;3.42;;;2.53;;
62673;SDS011;62269;47.594;17.638;2023-03-11T02:11:38;2.47;;;2.10;;
62673;SDS011;62269;47.594;17.638;2023-03-11T02:12:25;5.80;;;2.62;;
62673;SDS011;62269;47.594;17.638;2023-03-11T02:13:15;4.62;;;2.37;;
62673;SDS011;62269;47.594;17.638;2023-03-11T02:14:03;2.80;;;1.80;;
62673;SDS011;62269;47.594;17.638;2023-03-11T02:14:51;5.93;;;2.40;;
62673;SDS011;62269;47.594;17.638;2023-03-11T02:15:40;2.47;;;2.08;;
62673;SDS011;62269;47.594;17.638;2023-03-11T02:16:27;3.58;;;2.17;;
62673;SDS011;62269;47.594;17.638;2023-03-11T02:17:14;3.17;;;2.22;;
62673;SDS011;62269;47.594;17.638;2023-03-11T02:18:02;2.55;;;2.25;;
62673;SDS011;62269;47.594;17.638;2023-03-11T02:18:52;2.30;;;2.10;;
62673;SDS011;62269;47.594;17.638;2023-03-11T02:22:09;4.62;;;2.30;;
62673;SDS011;62269;47.594;17.638;2023-03-11T02:22:58;2.47;;;2.28;;
62673;SDS011;62269;47.594;17.638;2023-03-11T02:24:39;3.78;;;2.25;;
62673;SDS011;62269;47.594;17.638;2023-03-11T02:26:32;3.10;;;2.80;;
62673;SDS011;62269;47.594;17.638;2023-03-11T02:27:26;3.53;;;2.20;;
62673;SDS011;62269;47.594;17.638;2023-03-11T02:28:14;4.32;;;2.25;;
62673;SDS011;62269;47.594;17.638;2023-03-11T02:29:02;4.55;;;2.20;;
62673;SDS011;62269;47.594;17.638;2023-03-11T02:29:50;4.15;;;2.30;;
62673;SDS011;62269;47.594;17.638;2023-03-11T02:30:40;2.47;;;2.28;;
62673;SDS011;62269;47.594;17.638;2023-03-11T02:31:28;2.67;;;1.98;;
62673;SDS011;62269;47.594;17.638;2023-03-11T02:32:15;5.65;;;2.90;;
62673;SDS011;62269;47.594;17.638;2023-03-11T02:33:04;4.20;;;2.55;;
62673;SDS011;62269;47.594;17.638;2023-03-11T02:33:51;3.70;;;2.47;;
62673;SDS011;62269;47.594;17.638;2023-03-11T02:34:39;2.58;;;2.33;;
62673;SDS011;62269;47.594;17.638;2023-03-11T02:35:26;4.90;;;2.67;;
62673;SDS011;62269;47.594;17.638;2023-03-11T02:36:35;2.42;;;1.98;;
62673;SDS011;62269;47.594;17.638;2023-03-11T02:37:23;2.37;;;2.00;;
62673;SDS011;62269;47.594;17.638;2023-03-11T02:38:10;4.10;;;2.35;;
62673;SDS011;62269;47.594;17.638;2023-03-11T02:38:57;2.62;;;2.37;;
62673;SDS011;62269;47.594;17.638;2023-03-11T02:39:45;3.65;;;2.37;;
62673;SDS011;62269;47.594;17.638;2023-03-11T02:40:35;3.87;;;2.42;;
62673;SDS011;62269;47.594;17.638;2023-03-11T02:41:26;3.00;;;2.80;;
62673;SDS011;62269;47.594;17.638;2023-03-11T02:42:16;5.95;;;2.60;;
62673;SDS011;62269;47.594;17.638;2023-03-11T02:43:06;5.90;;;2.47;;
62673;SDS011;62269;47.594;17.638;2023-03-11T02:43:55;2.50;;;2.10;;
62673;SDS011;62269;47.594;17.638;2023-03-11T02:44:43;2.75;;;2.35;;
62673;SDS011;62269;47.594;17.638;2023-03-11T02:45:32;2.07;;;1.97;;
62673;SDS011;62269;47.594;17.638;2023-03-11T02:46:19;2.55;;;2.33;;
62673;SDS011;62269;47.594;17.638;2023-03-11T02:47:06;4.45;;;2.85;;
62673;SDS011;62269;47.594;17.638;2023-03-11T02:47:54;4.47;;;2.65;;
62673;SDS011;62269;47.594;17.638;2023-03-11T02:48:42;3.90;;;2.60;;
62673;SDS011;62269;47.594;17.638;2023-03-11T02:49:29;3.40;;;2.22;;
62673;SDS011;62269;47.594;17.638;2023-03-11T02:50:16;4.70;;;3.22;;
62673;SDS011;62269;47.594;17.638;2023-03-11T02:51:04;3.45;;;2.12;;
62673;SDS011;62269;47.594;17.638;2023-03-11T02:51:51;4.57;;;2.62;;
62673;SDS011;62269;47.594;17.638;2023-03-11T02:52:38;3.97;;;2.40;;
62673;SDS011;62269;47.594;17.638;2023-03-11T02:53:25;3.50;;;2.62;;
62673;SDS011;62269;47.594;17.638;2023-03-11T02:54:14;5.00;;;3.42;;
62673;SDS011;62269;47.594;17.638;2023-03-11T02:55:03;4.75;;;2.35;;
62673;SDS011;62269;47.594;17.638;2023-03-11T02:55:50;2.55;;;2.35;;
62673;SDS011;62269;47.594;17.638;2023-03-11T02:56:37;4.93;;;2.55;;
62673;SDS011;62269;47.594;17.638;2023-03-11T02:57:24;5.37;;;2.67;;
62673;SDS011;62269;47.594;17.638;2023-03-11T02:58:11;6.68;;;2.53;;
62673;SDS011;62269;47.594;17.638;2023-03-11T02:58:58;5.65;;;2.17;;
62673;SDS011;62269;47.594;17.638;2023-03-11T02:59:45;6.93;;;3.00;;
62673;SDS011;62269;47.594;17.638;2023-03-11T03:00:32;5.62;;;2.70;;
62673;SDS011;62269;47.594;17.638;2023-03-11T03:01:20;11.60;;;4.10;;
62673;SDS011;62269;47.594;17.638;2023-03-11T03:02:07;8.05;;;2.83;;
62673;SDS011;62269;47.594;17.638;2023-03-11T03:02:54;3.75;;;2.53;;
62673;SDS011;62269;47.594;17.638;2023-03-11T03:03:41;12.20;;;3.00;;
62673;SDS011;62269;47.594;17.638;2023-03-11T03:04:27;6.30;;;2.78;;
62673;SDS011;62269;47.594;17.638;2023-03-11T03:05:14;6.80;;;2.58;;
62673;SDS011;62269;47.594;17.638;2023-03-11T03:06:01;4.22;;;2.40;;
62673;SDS011;62269;47.594;17.638;2023-03-11T03:06:48;9.25;;;3.35;;
62673;SDS011;62269;47.594;17.638;2023-03-11T03:07:35;8.43;;;3.17;;
62673;SDS011;62269;47.594;17.638;2023-03-11T03:08:22;4.25;;;2.35;;
62673;SDS011;62269;47.594;17.638;2023-03-11T03:09:09;6.70;;;3.08;;
62673;SDS011;62269;47.594;17.638;2023-03-11T03:09:56;8.95;;;2.45;;
62673;SDS011;62269;47.594;17.638;2023-03-11T03:10:43;7.90;;;2.70;;
62673;SDS011;62269;47.594;17.638;2023-03-11T03:11:30;8.18;;;2.53;;
62673;SDS011;62269;47.594;17.638;2023-03-11T03:12:17;6.32;;;3.20;;
62673;SDS011;62269;47.594;17.638;2023-03-11T03:13:04;7.32;;;2.58;;
62673;SDS011;62269;47.594;17.638;2023-03-11T03:13:51;6.10;;;2.87;;
62673;SDS011;62269;47.594;17.638;2023-03-11T03:14:38;5.85;;;2.58;;
62673;SDS011;62269;47.594;17.638;2023-03-11T03:15:24;3.12;;;2.42;;
62673;SDS011;62269;47.594;17.638;2023-03-11T03:16:11;8.70;;;2.75;;
62673;SDS011;62269;47.594;17.638;2023-03-11T03:16:58;8.30;;;2.80;;
62673;SDS011;62269;47.594;17.638;2023-03-11T03:17:46;7.50;;;3.22;;
62673;SDS011;62269;47.594;17.638;2023-03-11T03:18:33;4.68;;;2.60;;
62673;SDS011;62269;47.594;17.638;2023-03-11T03:19:19;6.37;;;2.58;;
62673;SDS011;62269;47.594;17.638;2023-03-11T03:20:07;3.65;;;2.92;;
62673;SDS011;62269;47.594;17.638;2023-03-11T03:20:57;3.08;;;2.17;;
62673;SDS011;62269;47.594;17.638;2023-03-11T03:21:44;3.22;;;2.08;;
62673;SDS011;62269;47.594;17.638;2023-03-11T03:22:31;5.65;;;2.70;;
62673;SDS011;62269;47.594;17.638;2023-03-11T03:23:18;9.02;;;2.42;;
62673;SDS011;62269;47.594;17.638;2023-03-11T03:24:05;2.15;;;1.95;;
62673;SDS011;62269;47.594;17.638;2023-03-11T03:24:52;4.93;;;2.53;;
62673;SDS011;62269;47.594;17.638;2023-03-11T03:25:43;5.43;;;2.67;;
62673;SDS011;62269;47.594;17.638;2023-03-11T03:26:30;6.90;;;2.87;;
62673;SDS011;62269;47.594;17.638;2023-03-11T03:27:17;6.25;;;2.50;;
62673;SDS011;62269;47.594;17.638;2023-03-11T03:28:04;3.35;;;2.90;;
62673;SDS011;62269;47.594;17.638;2023-03-11T03:28:51;4.37;;;2.35;;
62673;SDS011;62269;47.594;17.638;2023-03-11T03:29:38;3.28;;;2.37;;
62673;SDS011;62269;47.594;17.638;2023-03-11T03:30:25;5.20;;;2.50;;
62673;SDS011;62269;47.594;17.638;2023-03-11T03:31:13;3.37;;;2.35;;
62673;SDS011;62269;47.594;17.638;2023-03-11T03:32:00;6.72;;;2.60;;
62673;SDS011;62269;47.594;17.638;2023-03-11T03:32:47;2.97;;;2.72;;
62673;SDS011;62269;47.594;17.638;2023-03-11T03:33:34;4.18;;;2.15;;
62673;SDS011;62269;47.594;17.638;2023-03-11T03:34:21;7.03;;;2.83;;
62673;SDS011;62269;47.594;17.638;2023-03-11T03:35:09;7.12;;;2.95;;
62673;SDS011;62269;47.594;17.638;2023-03-11T03:35:56;7.15;;;2.80;;
62673;SDS011;62269;47.594;17.638;2023-03-11T03:36:43;7.60;;;2.87;;
62673;SDS011;62269;47.594;17.638;2023-03-11T03:37:31;11.40;;;3.58;;
62673;SDS011;62269;47.594;17.638;2023-03-11T03:38:19;6.85;;;2.65;;
62673;SDS011;62269;47.594;17.638;2023-03-11T03:39:06;11.60;;;3.70;;
62673;SDS011;62269;47.594;17.638;2023-03-11T03:39:53;12.93;;;4.00;;
62673;SDS011;62269;47.594;17.638;2023-03-11T03:40:44;18.80;;;4.20;;
62673;SDS011;62269;47.594;17.638;2023-03-11T03:41:33;10.98;;;3.75;;
62673;SDS011;62269;47.594;17.638;2023-03-11T03:42:20;14.65;;;3.20;;
62673;SDS011;62269;47.594;17.638;2023-03-11T03:43:07;17.92;;;3.35;;
62673;SDS011;62269;47.594;17.638;2023-03-11T03:43:54;22.40;;;4.43;;
62673;SDS011;62269;47.594;17.638;2023-03-11T03:44:40;16.98;;;3.95;;
62673;SDS011;62269;47.594;17.638;2023-03-11T03:45:27;15.85;;;3.80;;
62673;SDS011;62269;47.594;17.638;2023-03-11T03:46:15;12.98;;;3.10;;
62673;SDS011;62269;47.594;17.638;2023-03-11T03:47:02;9.82;;;3.47;;
62673;SDS011;62269;47.594;17.638;2023-03-11T03:47:49;16.62;;;3.47;;
62673;SDS011;62269;47.594;17.638;2023-03-11T03:48:36;15.13;;;3.12;;
62673;SDS011;62269;47.594;17.638;2023-03-11T03:49:23;14.15;;;3.75;;
62673;SDS011;62269;47.594;17.638;2023-03-11T03:50:11;13.18;;;3.37;;
62673;SDS011;62269;47.594;17.638;2023-03-11T03:51:02;16.02;;;3.75;;
62673;SDS011;62269;47.594;17.638;2023-03-11T03:51:50;15.63;;;3.95;;
62673;SDS011;62269;47.594;17.638;2023-03-11T03:52:37;11.93;;;3.50;;
62673;SDS011;62269;47.594;17.638;2023-03-11T03:53:24;12.07;;;3.55;;
62673;SDS011;62269;47.594;17.638;2023-03-11T03:54:11;15.13;;;3.53;;
62673;SDS011;62269;47.594;17.638;2023-03-11T03:54:57;18.35;;;3.60;;
62673;SDS011;62269;47.594;17.638;2023-03-11T03:55:44;21.15;;;4.18;;
62673;SDS011;62269;47.594;17.638;2023-03-11T03:56:31;17.37;;;3.72;;
62673;SDS011;62269;47.594;17.638;2023-03-11T03:57:18;24.85;;;4.15;;
62673;SDS011;62269;47.594;17.638;2023-03-11T03:58:05;31.35;;;4.57;;
62673;SDS011;62269;47.594;17.638;2023-03-11T03:58:52;22.73;;;4.35;;
62673;SDS011;62269;47.594;17.638;2023-03-11T03:59:39;29.00;;;5.80;;
62673;SDS011;62269;47.594;17.638;2023-03-11T04:00:26;23.42;;;4.75;;
62673;SDS011;62269;47.594;17.638;2023-03-11T04:01:13;48.70;;;6.60;;
62673;SDS011;62269;47.594;17.638;2023-03-11T04:02:00;45.45;;;6.10;;
62673;SDS011;62269;47.594;17.638;2023-03-11T04:02:47;32.95;;;5.03;;
62673;SDS011;62269;47.594;17.638;2023-03-11T04:03:34;30.35;;;4.80;;
62673;SDS011;62269;47.594;17.638;2023-03-11T04:04:21;26.83;;;5.25;;
62673;SDS011;62269;47.594;17.638;2023-03-11T04:05:08;31.35;;;6.07;;
62673;SDS011;62269;47.594;17.638;2023-03-11T04:06:05;42.13;;;5.07;;
62673;SDS011;62269;47.594;17.638;2023-03-11T04:06:54;24.67;;;4.78;;
62673;SDS011;62269;47.594;17.638;2023-03-11T04:07:41;33.20;;;5.55;;
62673;SDS011;62269;47.594;17.638;2023-03-11T04:08:28;44.88;;;5.72;;
62673;SDS011;62269;47.594;17.638;2023-03-11T04:09:14;26.98;;;4.78;;
62673;SDS011;62269;47.594;17.638;2023-03-11T04:10:02;31.25;;;4.82;;
62673;SDS011;62269;47.594;17.638;2023-03-11T04:10:55;37.78;;;5.45;;
62673;SDS011;62269;47.594;17.638;2023-03-11T04:11:43;32.25;;;5.55;;
62673;SDS011;62269;47.594;17.638;2023-03-11T04:12:30;43.28;;;6.35;;
62673;SDS011;62269;47.594;17.638;2023-03-11T04:13:16;31.77;;;6.72;;
62673;SDS011;62269;47.594;17.638;2023-03-11T04:14:04;37.88;;;5.95;;
62673;SDS011;62269;47.594;17.638;2023-03-11T04:14:51;22.30;;;4.93;;
62673;SDS011;62269;47.594;17.638;2023-03-11T04:15:38;37.75;;;5.80;;
62673;SDS011;62269;47.594;17.638;2023-03-11T04:16:27;66.07;;;7.65;;
62673;SDS011;62269;47.594;17.638;2023-03-11T04:17:14;64.97;;;7.55;;
62673;SDS011;62269;47.594;17.638;2023-03-11T04:18:03;65.43;;;9.73;;
62673;SDS011;62269;47.594;17.638;2023-03-11T04:18:50;65.85;;;7.22;;
62673;SDS011;62269;47.594;17.638;2023-03-11T04:19:37;56.03;;;7.47;;
62673;SDS011;62269;47.594;17.638;2023-03-11T04:20:24;77.80;;;9.45;;
62673;SDS011;62269;47.594;17.638;2023-03-11T04:21:11;63.70;;;8.27;;
62673;SDS011;62269;47.594;17.638;2023-03-11T04:21:58;60.12;;;7.93;;
62673;SDS011;62269;47.594;17.638;2023-03-11T04:22:45;68.75;;;9.65;;
62673;SDS011;62269;47.594;17.638;2023-03-11T04:23:32;69.03;;;9.38;;
62673;SDS011;62269;47.594;17.638;2023-03-11T04:24:19;112.07;;;11.75;;
62673;SDS011;62269;47.594;17.638;2023-03-11T04:25:06;87.43;;;14.10;;
62673;SDS011;62269;47.594;17.638;2023-03-11T04:25:53;78.00;;;8.32;;
62673;SDS011;62269;47.594;17.638;2023-03-11T04:26:40;77.90;;;10.48;;
62673;SDS011;62269;47.594;17.638;2023-03-11T04:27:27;88.80;;;10.13;;
62673;SDS011;62269;47.594;17.638;2023-03-11T04:28:14;88.70;;;10.95;;
62673;SDS011;62269;47.594;17.638;2023-03-11T04:29:01;63.45;;;8.52;;
62673;SDS011;62269;47.594;17.638;2023-03-11T04:29:48;67.55;;;10.80;;
62673;SDS011;62269;47.594;17.638;2023-03-11T04:30:35;62.35;;;7.47;;
62673;SDS011;62269;47.594;17.638;2023-03-11T04:31:22;51.08;;;7.05;;
62673;SDS011;62269;47.594;17.638;2023-03-11T04:32:09;51.22;;;7.90;;
62673;SDS011;62269;47.594;17.638;2023-03-11T04:32:56;57.62;;;7.53;;
62673;SDS011;62269;47.594;17.638;2023-03-11T04:33:43;38.60;;;7.35;;
62673;SDS011;62269;47.594;17.638;2023-03-11T04:34:30;49.80;;;6.43;;
62673;SDS011;62269;47.594;17.638;2023-03-11T04:35:17;65.28;;;7.40;;
62673;SDS011;62269;47.594;17.638;2023-03-11T04:36:05;57.70;;;7.60;;
62673;SDS011;62269;47.594;17.638;2023-03-11T04:36:53;54.40;;;7.45;;
62673;SDS011;62269;47.594;17.638;2023-03-11T04:37:40;33.75;;;5.70;;
62673;SDS011;62269;47.594;17.638;2023-03-11T04:38:27;26.58;;;5.00;;
62673;SDS011;62269;47.594;17.638;2023-03-11T04:39:14;28.02;;;5.75;;
62673;SDS011;62269;47.594;17.638;2023-03-11T04:40:01;25.75;;;4.40;;
62673;SDS011;62269;47.594;17.638;2023-03-11T04:40:48;22.85;;;4.60;;
62673;SDS011;62269;47.594;17.638;2023-03-11T04:41:36;19.95;;;4.30;;
62673;SDS011;62269;47.594;17.638;2023-03-11T04:42:22;26.45;;;4.75;;
62673;SDS011;62269;47.594;17.638;2023-03-11T04:43:09;24.65;;;4.70;;
62673;SDS011;62269;47.594;17.638;2023-03-11T04:43:57;21.23;;;4.35;;
62673;SDS011;62269;47.594;17.638;2023-03-11T04:44:44;22.33;;;4.60;;
62673;SDS011;62269;47.594;17.638;2023-03-11T04:45:31;30.88;;;5.50;;
62673;SDS011;62269;47.594;17.638;2023-03-11T04:46:18;29.52;;;5.03;;
62673;SDS011;62269;47.594;17.638;2023-03-11T04:47:05;40.20;;;6.53;;
62673;SDS011;62269;47.594;17.638;2023-03-11T04:47:52;27.58;;;4.70;;
62673;SDS011;62269;47.594;17.638;2023-03-11T04:48:39;19.90;;;4.60;;
62673;SDS011;62269;47.594;17.638;2023-03-11T04:49:26;42.95;;;5.22;;
62673;SDS011;62269;47.594;17.638;2023-03-11T04:50:13;36.08;;;6.22;;